大阪空港の過去48時間の天気

大阪空港 (Osaka/Intl)

現在時刻: 9/24 13:44 JST (9/24 04:44 UTC) 以下の時間は現地時間です。

過去48時間のMETAR気象情報
時間 風向 風速(m/s) 視程 気温(℃) 湿度(%) 気圧(hPa) 天気現象
24 13:00 不定 2 10km以上 27 45 1015
24 12:00 西北西 2 10km以上 28 48 1015 周辺でしゅう雨
24 11:00 不定 1 10km以上 26 54 1016
24 10:00 不定 1 10km以上 26 58 1016
24 09:00 不定 1 10km以上 25 61 1016
24 08:00 不定 1 10km以上 23 69 1016
24 07:00 不定 1 10km以上 20 83 1015
24 06:00 北西 2 10km以上 19 88 1015
24 05:00 不定 1 10km以上 19 88 1015
23 20:00 不定 1 10km以上 24 65 1015
23 19:00 北西 3 10km以上 24 69 1015
23 18:00 北北西 3 10km以上 25 61 1015
23 17:00 北西 4 10km以上 26 54 1015
23 16:00 北西 4 10km以上 27 51 1014
23 15:00 北西 3 10km以上 27 48 1014
23 14:00 北西 2 10km以上 27 48 1015
23 13:00 北西 2 10km以上 27 48 1015
23 12:00 南西 2 10km以上 27 48 1016
23 11:00 不定 1 10km以上 27 48 1016
23 10:00 不定 1 10km以上 26 54 1017
23 09:00 不定 1 10km以上 24 65 1017
23 08:00 北西 2 10km以上 21 78 1016
23 07:00 北北西 2 10km以上 21 78 1017
23 06:00 北北西 2 10km以上 18 88 1016
23 05:00 北西 2 10km以上 19 88 1016
22 20:00 6 10km以上 24 61 1014
22 19:00 4 10km以上 24 61 1014
22 18:00 4 10km以上 26 54 1013
22 17:00 北西 4 10km以上 27 51 1012
22 16:00 北北西 3 10km以上 29 48 1012
22 15:00 北西 3 10km以上 28 48 1011
22 14:00 3 10km以上 28 48 1011
RJOO 240400Z VRB03KT 9999 FEW030 BKN140 27/14 Q1015 RMK 1CU030 5AC140 A2998
RJOO 240300Z 30004KT 240V340 9999 VCSH FEW030 SCT080 BKN130 28/16 Q1015 RMK 1CU030 3AC080 6AC130 A3000
RJOO 240200Z VRB02KT 9999 FEW030 BKN130 26/16 Q1016 RMK 1CU030 6AC130 A3000
RJOO 240100Z VRB02KT 9999 FEW025 SCT130 BKN170 26/17 Q1016 RMK 1CU025 3AC130 5AC170 A3000
RJOO 240000Z VRB02KT 9999 FEW020 BKN170 25/17 Q1016 RMK 1CU020 5AC170 A3000
RJOO 232300Z VRB02KT 9999 FEW020 SCT150 BKN170 23/17 Q1016 RMK 1CU020 3AC150 5AC170 A3000
RJOO 232200Z VRB02KT 9999 FEW010 SCT160 BKN/// 20/17 Q1015 RMK 1ST010 3AC160 A3000
RJOO 232100Z 32004KT 9999 FEW006 SCT160 19/17 Q1015 RMK 1ST006 3AC160 A2999
RJOO 232000Z VRB02KT 9999 FEW006 BKN160 BKN/// 19/17 Q1015 RMK 1ST006 5AC160 A2999
RJOO 231100Z VRB02KT 9999 FEW020 BKN170 24/17 Q1015 RMK 1CU020 5AC170 A2999
RJOO 231000Z 32006KT 9999 FEW020 BKN/// 24/18 Q1015 RMK 1CU020 A2999
RJOO 230900Z 33005KT 9999 FEW025 BKN170 25/17 Q1015 RMK 1CU025 5AC170 A2998
RJOO 230800Z 32007KT 9999 FEW030 BKN150 BKN/// 26/16 Q1015 RMK 1CU030 5AC150 A2997
RJOO 230700Z 32008KT 9999 FEW030 BKN150 27/16 Q1014 RMK 1CU030 5AC150 A2996
RJOO 230600Z 31005KT 9999 FEW030 BKN160 BKN/// 27/15 Q1014 RMK 1CU030 5AC160 A2996
RJOO 230500Z 32004KT 290V010 9999 FEW030 BKN150 BKN180 27/15 Q1015 RMK 1CU030 5AC150 6AC180 A2997
RJOO 230400Z 32004KT 280V350 9999 FEW030 BKN150 BKN180 27/15 Q1015 RMK 1CU030 5AC150 6AC180 A3000
RJOO 230300Z 22003KT 140V310 9999 FEW030 BKN160 27/15 Q1016 RMK 1CU030 5AC160 A3002
RJOO 230200Z VRB02KT 9999 FEW030 BKN/// 27/15 Q1016
RJOO 230100Z VRB02KT 9999 FEW030 BKN/// 26/16 Q1017 RMK 1CU030 A3005
RJOO 230000Z VRB01KT 9999 FEW030 BKN/// 24/17 Q1017 RMK 1CU030 A3004
RJOO 222300Z 32003KT 9999 FEW008 BKN180 21/17 Q1016 RMK 1ST008 6AC180 A3003
RJOO 222200Z 33004KT 9999 FEW008 BKN180 21/17 Q1017 RMK 1ST008 5AC180 A3003
RJOO 222100Z 34003KT 9999 FEW008 SCT/// 18/16 Q1016 RMK 1ST008 A3002
RJOO 222000Z 32003KT 9999 FEW020 BKN/// 19/17 Q1016 RMK 1CU020 A3001
RJOO 221100Z 35011KT 9999 FEW025 BKN/// 24/16 Q1014 RMK 1CU025 A2995
RJOO 221000Z 35007KT 9999 FEW025 BKN/// 24/16 Q1014 RMK 1CU025 A2994
RJOO 220900Z 36008KT 9999 FEW030 BKN/// 26/16 Q1013 RMK 1CU030 A2992
RJOO 220800Z 32007KT 9999 FEW030 BKN/// 27/16 Q1012 RMK 1CU030 A2990
RJOO 220700Z 33006KT 300V360 9999 FEW025 SCT060 BKN/// 29/17 Q1012 RMK 1CU025 3SC060 A2988
RJOO 220600Z 31006KT 270V340 9999 FEW025 SCT045 BKN060 28/16 Q1011 RMK 1CU025 3CU045 5SC060 A2988
RJOO 220500Z VRB05KT 9999 FEW030 SCT045 BKN060 28/16 Q1011 RMK 1CU030 3CU045 5SC060 A2988